createdAt,value
2023-05-22T00:01:37.914Z,100181.47
2023-05-22T00:06:43.093Z,100189.63
2023-05-22T00:11:46.161Z,100180.97
2023-05-22T00:16:47.878Z,100183.00
2023-05-22T00:21:49.616Z,100178.34
2023-05-22T00:26:53.645Z,100178.50
2023-05-22T00:31:55.343Z,100183.03
2023-05-22T00:36:56.989Z,100180.50
2023-05-22T00:42:00.624Z,100173.69
2023-05-22T00:47:02.402Z,100173.88
2023-05-22T00:52:04.706Z,100179.38
2023-05-22T00:57:07.783Z,100174.34
2023-05-22T01:02:09.783Z,100181.84
2023-05-22T01:07:11.570Z,100172.38
2023-05-22T01:12:20.733Z,100171.56
2023-05-22T01:17:32.296Z,100185.88
2023-05-22T01:22:56.963Z,100175.56
2023-05-22T01:28:30.394Z,100179.38
2023-05-22T01:33:41.254Z,100177.88
2023-05-22T01:38:43.704Z,100174.69
2023-05-22T01:43:46.379Z,100175.72
2023-05-22T01:48:49.461Z,100177.22
2023-05-22T01:53:55.293Z,100175.53
2023-05-22T01:59:03.232Z,100173.06
2023-05-22T02:04:06.969Z,100166.06
2023-05-22T02:09:10.156Z,100173.22
2023-05-22T02:14:11.908Z,100174.38
2023-05-22T02:19:15.404Z,100167.91
2023-05-22T02:24:18.315Z,100175.72
2023-05-22T02:29:20.039Z,100170.59
2023-05-22T02:34:23.103Z,100165.41
2023-05-22T02:39:24.782Z,100179.88
2023-05-22T02:44:26.489Z,100166.75
2023-05-22T02:49:29.538Z,100163.09
2023-05-22T02:54:31.211Z,100171.22
2023-05-22T02:59:32.933Z,100171.22
2023-05-22T03:04:36.011Z,100174.72
2023-05-22T03:09:37.680Z,100171.22
2023-05-22T03:14:39.429Z,100174.25
2023-05-22T03:19:42.489Z,100165.91
2023-05-22T03:24:44.133Z,100175.25
2023-05-22T03:29:45.796Z,100167.41
2023-05-22T03:34:48.870Z,100171.75
2023-05-22T03:39:50.581Z,100175.25
2023-05-22T03:44:52.279Z,100173.56
2023-05-22T03:49:55.377Z,100176.38
2023-05-22T03:54:57.085Z,100174.72
2023-05-22T03:59:58.740Z,100173.06
2023-05-22T04:05:01.769Z,100166.91
2023-05-22T04:10:04.197Z,100174.88
2023-05-22T04:15:07.178Z,100171.75
2023-05-22T04:20:11.084Z,100175.75
2023-05-22T04:25:13.068Z,100172.06
2023-05-22T04:30:15.434Z,100180.06
2023-05-22T04:35:18.714Z,100178.06
2023-05-22T04:40:20.693Z,100182.91
2023-05-22T04:45:22.380Z,100188.53
2023-05-22T04:50:25.455Z,100192.88
2023-05-22T04:55:28.848Z,100202.53
2023-05-22T05:01:01.425Z,100191.84
2023-05-22T05:06:14.396Z,100192.69
2023-05-22T05:11:16.090Z,100198.03
2023-05-22T05:16:17.849Z,100201.69
2023-05-22T05:21:21.228Z,100207.16
2023-05-22T05:26:22.955Z,100216.81
2023-05-22T05:31:24.807Z,100213.00
2023-05-22T05:36:28.096Z,100217.13
2023-05-22T05:41:29.786Z,100214.63
2023-05-22T05:46:31.691Z,100219.31
2023-05-22T05:51:34.828Z,100229.81
2023-05-22T05:56:36.759Z,100232.31
2023-05-22T06:01:38.634Z,100226.28
2023-05-22T06:06:42.007Z,100227.09
2023-05-22T06:11:43.632Z,100225.75
2023-05-22T06:16:45.344Z,100224.91
2023-05-22T06:21:49.824Z,100228.41
2023-05-22T06:26:53.229Z,100227.56
2023-05-22T06:31:54.956Z,100226.72
2023-05-22T06:36:58.097Z,100232.22
2023-05-22T06:41:59.916Z,100226.66
2023-05-22T06:47:01.667Z,100228.44
2023-05-22T06:52:05.578Z,100220.22
2023-05-22T06:57:07.276Z,100226.00
2023-05-22T07:02:08.988Z,100232.41
2023-05-22T07:07:12.004Z,100229.03
2023-05-22T07:12:13.726Z,100231.03
2023-05-22T07:17:15.386Z,100228.69
2023-05-22T07:22:18.470Z,100231.00
2023-05-22T07:27:20.290Z,100223.81
2023-05-22T07:32:22.002Z,100228.97
2023-05-22T07:37:25.189Z,100229.16
2023-05-22T07:42:26.874Z,100233.69
2023-05-22T07:47:28.690Z,100231.47
2023-05-22T07:52:31.850Z,100222.25
2023-05-22T07:57:33.602Z,100227.75
2023-05-22T08:02:35.407Z,100230.16
2023-05-22T08:07:38.534Z,100232.94
2023-05-22T08:12:40.278Z,100233.28
2023-05-22T08:17:42.010Z,100236.88
2023-05-22T08:22:45.067Z,100226.59
2023-05-22T08:27:46.740Z,100233.47
2023-05-22T08:32:48.436Z,100229.50
2023-05-22T08:37:51.566Z,100233.53
2023-05-22T08:42:53.282Z,100235.41
2023-05-22T08:47:57.196Z,100230.16
2023-05-22T08:53:01.296Z,100223.91
2023-05-22T08:58:04.600Z,100222.97
2023-05-22T09:03:06.592Z,100214.47
2023-05-22T09:08:19.590Z,100222.88
2023-05-22T09:13:26.213Z,100219.69
2023-05-22T09:18:28.678Z,100214.63
2023-05-22T09:23:31.954Z,100216.09
2023-05-22T09:28:35.122Z,100214.91
2023-05-22T09:33:37.274Z,100211.66
2023-05-22T09:38:40.479Z,100211.28
2023-05-22T09:43:50.249Z,100213.19
2023-05-22T09:48:52.133Z,100207.63
2023-05-22T09:54:02.638Z,100211.59
2023-05-22T09:59:07.263Z,100214.28
2023-05-22T10:04:12.920Z,100208.97
2023-05-22T10:09:19.239Z,100209.97
2023-05-22T10:14:22.949Z,100209.88
2023-05-22T10:19:25.401Z,100200.25
2023-05-22T10:24:29.531Z,100198.53
2023-05-22T10:29:36.594Z,100193.91
2023-05-22T10:34:49.249Z,100184.25
2023-05-22T10:40:02.112Z,100180.81
2023-05-22T10:45:08.363Z,100173.53
2023-05-22T10:50:11.746Z,100176.03
2023-05-22T10:55:14.934Z,100177.16
2023-05-22T11:00:24.177Z,100173.22
2023-05-22T11:05:36.107Z,100161.41
2023-05-22T11:10:55.633Z,100157.19
2023-05-22T11:15:58.691Z,100162.47
2023-05-22T11:21:00.406Z,100161.75
2023-05-22T11:26:18.594Z,100159.56
2023-05-22T11:31:20.819Z,100152.38
2023-05-22T11:36:24.971Z,100142.53
2023-05-22T11:41:33.866Z,100143.41
2023-05-22T11:46:36.003Z,100137.19
2023-05-22T11:51:38.654Z,100128.97
2023-05-22T11:56:41.872Z,100135.75
2023-05-22T12:01:43.585Z,100136.03
2023-05-22T12:06:45.667Z,100132.47
2023-05-22T12:11:49.296Z,100126.03
2023-05-22T12:16:52.522Z,100132.09
2023-05-22T12:21:54.697Z,100126.56
2023-05-22T12:26:57.752Z,100123.03
2023-05-22T12:32:02.664Z,100111.44
2023-05-22T12:37:04.244Z,100105.69
2023-05-22T12:42:07.744Z,100105.97
2023-05-22T12:47:09.438Z,100105.06
2023-05-22T12:52:11.090Z,100109.44
2023-05-22T12:57:14.256Z,100105.31
2023-05-22T13:02:15.933Z,100097.16
2023-05-22T13:07:20.602Z,100092.72
2023-05-22T13:12:23.821Z,100099.97
2023-05-22T13:17:25.620Z,100099.72
2023-05-22T13:22:27.366Z,100094.78
2023-05-22T13:27:32.742Z,100094.13
2023-05-22T13:32:35.408Z,100109.72
2023-05-22T13:37:37.308Z,100115.63
2023-05-22T13:42:40.370Z,100099.38
2023-05-22T13:47:42.105Z,100099.28
2023-05-22T13:52:45.965Z,100093.84
2023-05-22T13:57:49.016Z,100093.69
2023-05-22T14:02:50.741Z,100083.97
2023-05-22T14:07:52.463Z,100084.34
2023-05-22T14:12:55.609Z,100090.53
2023-05-22T14:17:57.335Z,100100.34
2023-05-22T14:23:02.031Z,100106.22
2023-05-22T14:28:05.133Z,100119.06
2023-05-22T14:33:07.152Z,100114.03
2023-05-22T14:38:11.928Z,100103.38
2023-05-22T14:43:15.847Z,100123.81
2023-05-22T14:48:17.573Z,100133.06
2023-05-22T14:53:19.395Z,100128.97
2023-05-22T14:58:22.455Z,100134.34
2023-05-22T15:03:26.891Z,100141.78
2023-05-22T15:08:28.587Z,100141.41
2023-05-22T15:13:31.598Z,100149.00
2023-05-22T15:18:33.323Z,100140.59
2023-05-22T15:23:35.240Z,100143.00
2023-05-22T15:28:38.277Z,100147.72
2023-05-22T15:33:39.931Z,100143.72
2023-05-22T15:38:41.625Z,100132.69
2023-05-22T15:43:44.706Z,100119.63
2023-05-22T15:48:46.509Z,100109.88
2023-05-22T15:53:48.196Z,100116.50
2023-05-22T15:58:51.281Z,100113.75
2023-05-22T16:03:53.206Z,100105.47
2023-05-22T16:08:54.992Z,100107.03
2023-05-22T16:13:58.066Z,100109.13
2023-05-22T16:18:59.814Z,100105.00
2023-05-22T16:24:01.553Z,100109.84
2023-05-22T16:29:07.069Z,100119.13
2023-05-22T16:34:08.752Z,100126.78
2023-05-22T16:39:10.464Z,100126.25
2023-05-22T16:44:13.585Z,100138.63
2023-05-22T16:49:15.301Z,100155.84
2023-05-22T16:54:17.007Z,100167.47
2023-05-22T16:59:20.242Z,100166.53
2023-05-22T17:04:22.004Z,100169.22
2023-05-22T17:09:26.579Z,100175.41
2023-05-22T17:14:33.411Z,100178.09
2023-05-22T17:19:35.328Z,100175.13
2023-05-22T17:24:37.087Z,100188.69
2023-05-22T17:29:40.248Z,100195.59
2023-05-22T17:34:41.960Z,100191.34
2023-05-22T17:39:43.674Z,100189.72
2023-05-22T17:44:46.724Z,100196.63
2023-05-22T17:49:48.404Z,100194.41
2023-05-22T17:54:50.119Z,100199.56
2023-05-22T17:59:53.220Z,100199.56
2023-05-22T18:04:54.906Z,100199.00
2023-05-22T18:09:56.707Z,100206.75
2023-05-22T18:14:59.785Z,100217.84
2023-05-22T18:20:01.503Z,100230.81
2023-05-22T18:25:03.292Z,100236.97
2023-05-22T18:30:10.423Z,100249.72
2023-05-22T18:35:12.138Z,100249.72
2023-05-22T18:40:13.907Z,100252.50
2023-05-22T18:45:16.981Z,100248.31
2023-05-22T18:50:18.909Z,100250.28
2023-05-22T18:55:23.393Z,100256.81
2023-05-22T19:00:26.466Z,100268.91
2023-05-22T19:05:28.172Z,100257.34
2023-05-22T19:10:29.863Z,100273.13
2023-05-22T19:15:33.464Z,100276.69
2023-05-22T19:20:38.373Z,100281.56
2023-05-22T19:25:40.169Z,100290.09
2023-05-22T19:30:43.555Z,100290.47
2023-05-22T19:35:45.537Z,100293.13
2023-05-22T19:40:47.210Z,100301.31
2023-05-22T19:45:50.600Z,100314.03
2023-05-22T19:50:52.284Z,100310.88
2023-05-22T19:55:53.981Z,100316.41
2023-05-22T20:00:57.084Z,100317.53
2023-05-22T20:05:58.828Z,100322.88
2023-05-22T20:11:00.472Z,100339.13
2023-05-22T20:16:03.725Z,100339.28
2023-05-22T20:21:05.484Z,100333.78
2023-05-22T20:26:07.200Z,100335.59
2023-05-22T20:31:10.260Z,100338.09
2023-05-22T20:36:11.973Z,100343.44
2023-05-22T20:41:13.676Z,100337.25
2023-05-22T20:46:16.778Z,100349.59
2023-05-22T20:51:18.487Z,100356.13
2023-05-22T20:56:20.216Z,100352.50
2023-05-22T21:01:24.038Z,100352.34
2023-05-22T21:06:25.699Z,100371.75
2023-05-22T21:11:27.932Z,100362.25
2023-05-22T21:16:30.950Z,100367.41
2023-05-22T21:21:32.640Z,100371.09
2023-05-22T21:26:34.353Z,100369.63
2023-05-22T21:31:37.686Z,100369.13
2023-05-22T21:36:39.424Z,100364.63
2023-05-22T21:41:41.281Z,100371.66
2023-05-22T21:46:44.404Z,100371.16
2023-05-22T21:51:46.074Z,100377.66
2023-05-22T21:56:47.798Z,100378.50
2023-05-22T22:01:50.858Z,100382.84
2023-05-22T22:06:52.577Z,100386.53
2023-05-22T22:11:54.276Z,100394.72
2023-05-22T22:16:57.398Z,100406.59
2023-05-22T22:21:59.126Z,100410.59
2023-05-22T22:27:00.841Z,100406.94
2023-05-22T22:32:04.179Z,100412.91
2023-05-22T22:37:06.126Z,100412.28
2023-05-22T22:42:08.008Z,100414.94
2023-05-22T22:47:11.075Z,100408.94
2023-05-22T22:52:12.748Z,100402.94
2023-05-22T22:57:14.623Z,100414.44
2023-05-22T23:02:17.736Z,100421.63
2023-05-22T23:07:19.396Z,100417.28
2023-05-22T23:12:21.075Z,100414.63
2023-05-22T23:17:24.106Z,100424.13
2023-05-22T23:22:25.774Z,100435.00
2023-05-22T23:27:27.447Z,100429.66
2023-05-22T23:32:30.534Z,100434.81
2023-05-22T23:37:32.238Z,100428.16
2023-05-22T23:42:33.960Z,100434.50
2023-05-22T23:47:37.210Z,100439.84
2023-05-22T23:52:39.051Z,100442.69
2023-05-22T23:57:40.739Z,100449.53
